createdAt,value
2022-09-28T00:00:19.632Z,8.59
2022-09-28T00:02:46.384Z,8.56
2022-09-28T00:05:13.023Z,8.55
2022-09-28T00:07:39.547Z,8.49
2022-09-28T00:10:06.139Z,8.39
2022-09-28T00:12:33.763Z,8.38
2022-09-28T00:15:00.292Z,8.36
2022-09-28T00:17:26.822Z,8.36
2022-09-28T00:19:53.333Z,8.34
2022-09-28T00:22:19.811Z,8.33
2022-09-28T00:24:46.610Z,8.30
2022-09-28T00:27:13.212Z,8.27
2022-09-28T00:29:39.738Z,8.27
2022-09-28T00:32:07.797Z,8.26
2022-09-28T00:34:38.382Z,8.26
2022-09-28T00:37:05.885Z,8.20
2022-09-28T00:39:32.364Z,8.19
2022-09-28T00:41:58.973Z,8.17
2022-09-28T00:44:25.477Z,8.14
2022-09-28T00:46:55.046Z,8.13
2022-09-28T00:49:27.269Z,8.10
2022-09-28T00:51:54.055Z,8.09
2022-09-28T00:54:20.897Z,8.08
2022-09-28T00:56:48.010Z,8.06
2022-09-28T00:59:15.018Z,8.03
2022-09-28T01:01:41.623Z,8.02
2022-09-28T01:04:08.176Z,8.00
2022-09-28T01:06:35.923Z,8.06
2022-09-28T01:09:04.636Z,8.06
2022-09-28T01:11:37.226Z,8.07
2022-09-28T01:14:05.381Z,8.06
2022-09-28T01:16:34.716Z,8.03
2022-09-28T01:19:19.809Z,8.01
2022-09-28T01:21:46.458Z,8.01
2022-09-28T01:24:30.928Z,8.01
2022-09-28T01:27:09.649Z,8.00
2022-09-28T01:29:44.578Z,8.03
2022-09-28T01:32:14.152Z,8.02
2022-09-28T01:34:46.990Z,8.01
2022-09-28T01:37:15.245Z,7.98
2022-09-28T01:39:44.289Z,7.98
2022-09-28T01:42:14.581Z,7.95
2022-09-28T01:44:43.426Z,7.97
2022-09-28T01:47:13.461Z,7.98
2022-09-28T01:49:42.755Z,7.98
2022-09-28T01:52:14.206Z,7.95
2022-09-28T01:54:43.918Z,7.90
2022-09-28T01:57:29.169Z,7.86
2022-09-28T01:59:59.881Z,7.84
2022-09-28T02:02:32.549Z,7.82
2022-09-28T02:05:02.738Z,7.77
2022-09-28T02:07:29.738Z,7.68
2022-09-28T02:10:22.583Z,7.63
2022-09-28T02:12:51.649Z,7.62
2022-09-28T02:15:20.208Z,7.63
2022-09-28T02:17:46.810Z,7.69
2022-09-28T02:20:13.726Z,7.76
2022-09-28T02:22:43.930Z,7.78
2022-09-28T02:25:10.460Z,7.80
2022-09-28T02:27:48.064Z,7.78
2022-09-28T02:30:14.677Z,7.76
2022-09-28T02:32:45.062Z,7.72
2022-09-28T02:35:12.875Z,7.70
2022-09-28T02:37:40.140Z,7.72
2022-09-28T02:40:28.923Z,7.64
2022-09-28T02:43:02.170Z,7.64
2022-09-28T02:45:41.572Z,7.54
2022-09-28T02:48:42.639Z,7.55
2022-09-28T02:51:09.958Z,7.52
2022-09-28T02:53:50.297Z,7.52
2022-09-28T02:56:36.211Z,7.48
2022-09-28T02:59:05.545Z,7.46
2022-09-28T03:01:50.932Z,7.44
2022-09-28T03:04:17.493Z,7.38
2022-09-28T03:06:46.725Z,7.41
2022-09-28T03:09:13.230Z,7.34
2022-09-28T03:11:43.913Z,7.34
2022-09-28T03:14:11.296Z,7.29
2022-09-28T03:16:37.974Z,7.31
2022-09-28T03:19:04.531Z,7.30
2022-09-28T03:21:31.045Z,7.31
2022-09-28T03:23:57.855Z,7.29
2022-09-28T03:26:24.332Z,7.29
2022-09-28T03:28:50.901Z,7.27
2022-09-28T03:31:17.449Z,7.21
2022-09-28T03:33:43.949Z,7.21
2022-09-28T03:36:10.460Z,7.19
2022-09-28T03:38:37.030Z,7.19
2022-09-28T03:41:03.595Z,7.17
2022-09-28T03:43:30.433Z,7.21
2022-09-28T03:45:58.148Z,7.26
2022-09-28T03:48:28.814Z,7.25
2022-09-28T03:50:59.521Z,7.22
2022-09-28T03:53:26.337Z,7.24
2022-09-28T03:55:55.734Z,7.23
2022-09-28T03:58:22.871Z,7.28
2022-09-28T04:00:49.960Z,7.34
2022-09-28T04:03:16.616Z,7.37
2022-09-28T04:05:50.133Z,7.35
2022-09-28T04:08:16.949Z,7.37
2022-09-28T04:10:43.446Z,7.24
2022-09-28T04:13:09.972Z,7.25
2022-09-28T04:15:38.486Z,7.23
2022-09-28T04:18:13.855Z,7.25
2022-09-28T04:20:41.593Z,7.34
2022-09-28T04:23:08.495Z,7.33
2022-09-28T04:25:34.987Z,7.34
2022-09-28T04:28:19.980Z,7.43
2022-09-28T04:30:47.110Z,7.39
2022-09-28T04:33:13.602Z,7.46
2022-09-28T04:35:40.083Z,7.40
2022-09-28T04:38:06.717Z,7.38
2022-09-28T04:40:33.265Z,7.34
2022-09-28T04:42:59.827Z,7.37
2022-09-28T04:45:26.981Z,7.38
2022-09-28T04:47:53.857Z,7.39
2022-09-28T04:50:20.612Z,7.38
2022-09-28T04:52:47.108Z,7.42
2022-09-28T04:55:14.476Z,7.40
2022-09-28T04:57:41.036Z,7.39
2022-09-28T05:00:08.746Z,7.37
2022-09-28T05:02:35.399Z,7.42
2022-09-28T05:05:02.038Z,7.43
2022-09-28T05:07:29.063Z,7.36
2022-09-28T05:09:55.931Z,7.26
2022-09-28T05:12:22.455Z,7.27
2022-09-28T05:14:49.053Z,7.32
2022-09-28T05:17:15.644Z,7.34
2022-09-28T05:19:42.225Z,7.35
2022-09-28T05:22:13.978Z,7.30
2022-09-28T05:24:40.846Z,7.29
2022-09-28T05:27:07.418Z,7.29
2022-09-28T05:29:33.898Z,7.34
2022-09-28T05:32:01.678Z,7.26
2022-09-28T05:34:28.885Z,7.31
2022-09-28T05:36:55.660Z,7.36
2022-09-28T05:39:22.203Z,7.34
2022-09-28T05:41:49.220Z,7.33
2022-09-28T05:44:15.813Z,7.27
2022-09-28T05:46:42.370Z,7.24
2022-09-28T05:49:08.849Z,7.28
2022-09-28T05:51:35.410Z,7.25
2022-09-28T05:54:05.604Z,7.25
2022-09-28T05:56:33.046Z,7.19
2022-09-28T05:58:59.602Z,7.16
2022-09-28T06:01:26.325Z,7.15
2022-09-28T06:03:52.949Z,7.17
2022-09-28T06:06:19.614Z,7.15
2022-09-28T06:08:48.363Z,7.19
2022-09-28T06:11:14.939Z,7.25
2022-09-28T06:13:41.431Z,7.28
2022-09-28T06:16:08.322Z,7.23
2022-09-28T06:18:35.194Z,7.22
2022-09-28T06:21:02.851Z,7.26
2022-09-28T06:23:29.453Z,7.24
2022-09-28T06:25:56.002Z,7.27
2022-09-28T06:28:22.533Z,7.28
2022-09-28T06:30:49.176Z,7.36
2022-09-28T06:33:16.347Z,7.36
2022-09-28T06:35:42.900Z,7.38
2022-09-28T06:38:09.818Z,7.46
2022-09-28T06:40:37.322Z,7.55
2022-09-28T06:43:09.971Z,7.56
2022-09-28T06:45:37.056Z,7.55
2022-09-28T06:48:04.095Z,7.54
2022-09-28T06:50:34.882Z,7.56
2022-09-28T06:53:01.706Z,7.54
2022-09-28T06:55:28.808Z,7.59
2022-09-28T06:57:58.620Z,7.63
2022-09-28T07:00:25.796Z,7.78
2022-09-28T07:02:52.305Z,7.73
2022-09-28T07:05:19.827Z,7.60
2022-09-28T07:07:46.340Z,7.61
2022-09-28T07:10:12.953Z,7.66
2022-09-28T07:12:40.627Z,7.64
2022-09-28T07:15:07.604Z,7.72
2022-09-28T07:17:41.497Z,7.79
2022-09-28T07:20:18.626Z,7.81
2022-09-28T07:22:48.012Z,7.88
2022-09-28T07:25:14.537Z,7.86
2022-09-28T07:27:41.019Z,7.94
2022-09-28T07:30:07.719Z,7.94
2022-09-28T07:32:37.499Z,7.90
2022-09-28T07:35:09.197Z,7.89
2022-09-28T07:37:36.251Z,7.94
2022-09-28T07:40:22.727Z,8.04
2022-09-28T07:42:49.384Z,8.09
2022-09-28T07:45:15.930Z,8.01
2022-09-28T07:47:42.508Z,7.96
2022-09-28T07:50:09.327Z,7.99
2022-09-28T07:52:36.281Z,7.92
2022-09-28T07:55:07.058Z,7.95
2022-09-28T07:57:34.071Z,7.96
2022-09-28T08:00:02.196Z,7.91
2022-09-28T08:02:32.402Z,7.88
2022-09-28T08:04:59.803Z,7.95
2022-09-28T08:07:26.842Z,7.93
2022-09-28T08:09:53.484Z,7.94
2022-09-28T08:12:21.133Z,7.99
2022-09-28T08:14:47.794Z,7.97
2022-09-28T08:17:15.706Z,7.99
2022-09-28T08:20:00.630Z,8.08
2022-09-28T08:22:27.197Z,8.20
2022-09-28T08:24:53.696Z,8.34
2022-09-28T08:27:20.200Z,8.44
2022-09-28T08:29:46.731Z,8.42
2022-09-28T08:32:13.219Z,8.44
2022-09-28T08:34:40.776Z,8.50
2022-09-28T08:37:09.215Z,8.51
2022-09-28T08:39:36.196Z,8.62
2022-09-28T08:42:15.746Z,8.64
2022-09-28T08:44:48.069Z,8.69
2022-09-28T08:47:42.973Z,8.77
2022-09-28T08:50:14.323Z,8.92
2022-09-28T08:52:40.995Z,8.96
2022-09-28T08:55:11.988Z,8.95
2022-09-28T08:57:50.995Z,9.02
2022-09-28T09:00:20.768Z,8.94
2022-09-28T09:02:47.945Z,8.94
2022-09-28T09:05:19.986Z,8.91
2022-09-28T09:07:52.690Z,8.88
2022-09-28T09:10:38.065Z,8.87
2022-09-28T09:13:23.630Z,8.89
2022-09-28T09:16:00.317Z,9.01
2022-09-28T09:18:32.737Z,9.13
2022-09-28T09:21:02.918Z,9.23
2022-09-28T09:23:58.810Z,9.25
2022-09-28T09:26:39.191Z,9.22
2022-09-28T09:29:12.241Z,9.13
2022-09-28T09:31:38.700Z,9.12
2022-09-28T09:34:23.872Z,9.18
2022-09-28T09:37:01.716Z,9.19
2022-09-28T09:39:31.194Z,9.24
2022-09-28T09:42:03.584Z,9.40
2022-09-28T09:44:48.887Z,9.41
2022-09-28T09:47:38.839Z,9.46
2022-09-28T09:50:12.784Z,9.45
2022-09-28T09:52:42.336Z,9.42
2022-09-28T09:55:10.861Z,9.49
2022-09-28T09:58:00.643Z,9.45
2022-09-28T10:00:27.297Z,9.50
2022-09-28T10:02:54.971Z,9.53
2022-09-28T10:05:24.081Z,9.52
2022-09-28T10:08:08.688Z,9.59
2022-09-28T10:10:37.243Z,9.61
2022-09-28T10:13:04.265Z,9.52
2022-09-28T10:15:35.412Z,9.50
2022-09-28T10:18:09.600Z,9.50
2022-09-28T10:20:38.444Z,9.53
2022-09-28T10:23:06.900Z,9.54
2022-09-28T10:25:37.495Z,9.46
2022-09-28T10:28:06.388Z,9.47
2022-09-28T10:30:38.330Z,9.43
2022-09-28T10:33:04.876Z,9.32
2022-09-28T10:35:41.068Z,9.28
2022-09-28T10:38:27.827Z,9.30
2022-09-28T10:40:55.837Z,9.33
2022-09-28T10:43:49.064Z,9.31
2022-09-28T10:46:23.681Z,9.32
2022-09-28T10:49:02.286Z,9.25
2022-09-28T10:51:49.813Z,9.24
2022-09-28T10:54:17.793Z,9.23
2022-09-28T10:56:45.233Z,9.31
2022-09-28T10:59:30.128Z,9.40
2022-09-28T11:01:56.653Z,9.52
2022-09-28T11:04:26.092Z,9.47
2022-09-28T11:06:52.736Z,9.49
2022-09-28T11:09:33.669Z,9.50
2022-09-28T11:12:00.891Z,9.58
2022-09-28T11:14:27.476Z,9.67
2022-09-28T11:17:12.892Z,9.80
2022-09-28T11:19:39.549Z,10.01
2022-09-28T11:22:20.265Z,10.04
2022-09-28T11:24:47.441Z,10.13
2022-09-28T11:27:22.000Z,10.18
2022-09-28T11:29:56.022Z,10.10
2022-09-28T11:32:24.522Z,10.07
2022-09-28T11:34:59.527Z,10.11
2022-09-28T11:37:31.332Z,10.10
2022-09-28T11:39:57.809Z,10.04
2022-09-28T11:42:30.306Z,9.97
2022-09-28T11:45:17.042Z,9.85
2022-09-28T11:47:47.176Z,9.86
2022-09-28T11:50:23.760Z,9.86
2022-09-28T11:52:59.968Z,9.85
2022-09-28T11:55:35.218Z,9.90
2022-09-28T11:58:09.890Z,9.81
2022-09-28T12:00:40.250Z,9.75
2022-09-28T12:03:25.176Z,9.70
2022-09-28T12:05:56.922Z,9.68
2022-09-28T12:08:27.656Z,9.71
2022-09-28T12:11:12.475Z,9.69
2022-09-28T12:13:41.684Z,9.71
2022-09-28T12:16:45.564Z,9.83
2022-09-28T12:19:16.843Z,9.95
2022-09-28T12:21:51.592Z,10.02
2022-09-28T12:24:18.084Z,10.04
2022-09-28T12:26:44.544Z,9.96
2022-09-28T12:29:13.826Z,9.83
2022-09-28T12:31:50.797Z,9.79
2022-09-28T12:34:17.451Z,9.79
2022-09-28T12:36:47.482Z,9.84
2022-09-28T12:39:24.036Z,9.89
2022-09-28T12:42:06.994Z,9.85
2022-09-28T12:44:33.484Z,9.96
2022-09-28T12:47:05.612Z,10.09
2022-09-28T12:52:27.944Z,10.15
2022-09-28T12:55:03.361Z,10.08
2022-09-28T12:57:36.053Z,10.09
2022-09-28T13:00:05.855Z,10.11
2022-09-28T13:02:38.397Z,10.19
2022-09-28T13:05:04.963Z,10.18
2022-09-28T13:07:49.830Z,10.18
2022-09-28T13:10:19.551Z,10.18
2022-09-28T13:12:48.910Z,10.23
2022-09-28T13:15:30.052Z,10.25
2022-09-28T13:17:56.582Z,10.19
2022-09-28T13:20:35.898Z,10.17
2022-09-28T13:23:02.469Z,10.23
2022-09-28T13:25:31.188Z,10.25
2022-09-28T13:27:57.782Z,10.25
2022-09-28T13:30:26.752Z,10.33
2022-09-28T13:32:56.302Z,10.28
2022-09-28T13:35:23.559Z,10.23
2022-09-28T13:38:10.275Z,10.25
2022-09-28T13:40:55.269Z,10.23
2022-09-28T13:43:28.155Z,10.10
2022-09-28T13:45:58.856Z,10.05
2022-09-28T13:48:37.461Z,10.07
2022-09-28T13:51:28.064Z,10.15
2022-09-28T13:54:03.225Z,10.09
2022-09-28T13:56:39.041Z,9.97
2022-09-28T13:59:14.698Z,9.86
2022-09-28T14:01:44.900Z,9.89
2022-09-28T14:04:20.519Z,9.93
2022-09-28T14:07:10.530Z,9.92
2022-09-28T14:09:42.083Z,9.91
2022-09-28T14:12:27.378Z,9.91
2022-09-28T14:14:54.208Z,9.90
2022-09-28T14:17:20.690Z,9.89
2022-09-28T14:19:52.062Z,9.78
2022-09-28T14:22:21.383Z,9.72
2022-09-28T14:24:47.866Z,9.69
2022-09-28T14:27:14.717Z,9.62
2022-09-28T14:29:41.347Z,9.59
2022-09-28T14:32:07.873Z,9.58
2022-09-28T14:34:37.585Z,9.52
2022-09-28T14:37:24.333Z,9.54
2022-09-28T14:40:10.049Z,9.51
2022-09-28T14:42:37.405Z,9.51
2022-09-28T14:45:06.697Z,9.47
2022-09-28T14:47:36.824Z,9.42
2022-09-28T14:50:23.115Z,9.35
2022-09-28T14:53:09.844Z,9.32
2022-09-28T14:55:50.351Z,9.30
2022-09-28T14:58:22.514Z,9.30
2022-09-28T15:00:57.903Z,9.34
2022-09-28T15:03:24.623Z,9.38
2022-09-28T15:05:51.201Z,9.40
2022-09-28T15:08:20.295Z,9.42
2022-09-28T15:10:48.304Z,9.39
2022-09-28T15:13:20.779Z,9.36
2022-09-28T15:15:50.503Z,9.32
2022-09-28T15:18:17.070Z,9.29
2022-09-28T15:20:46.896Z,9.22
2022-09-28T15:23:46.858Z,9.18
2022-09-28T15:26:33.284Z,9.20
2022-09-28T15:29:02.965Z,9.17
2022-09-28T15:31:30.574Z,9.20
2022-09-28T15:34:15.797Z,9.16
2022-09-28T15:36:44.176Z,9.16
2022-09-28T15:39:15.724Z,9.18
2022-09-28T15:41:43.723Z,9.12
2022-09-28T15:44:13.234Z,9.14
2022-09-28T15:46:41.537Z,9.09
2022-09-28T15:49:20.474Z,9.14
2022-09-28T15:51:49.968Z,9.11
2022-09-28T15:54:21.117Z,9.10
2022-09-28T15:56:54.952Z,9.11
2022-09-28T15:59:30.932Z,9.12
2022-09-28T16:02:08.190Z,9.11
2022-09-28T16:04:39.346Z,9.11
2022-09-28T16:07:06.731Z,9.18
2022-09-28T16:09:40.265Z,9.14
2022-09-28T16:12:11.541Z,9.17
2022-09-28T16:14:38.054Z,9.18
2022-09-28T16:17:06.571Z,9.22
2022-09-28T16:19:37.069Z,9.24
2022-09-28T16:22:06.403Z,9.24
2022-09-28T16:24:37.284Z,9.28
2022-09-28T16:27:08.995Z,9.31
2022-09-28T16:29:39.699Z,9.31
2022-09-28T16:32:35.464Z,9.36
2022-09-28T16:35:10.957Z,9.40
2022-09-28T16:37:37.831Z,9.41
2022-09-28T16:40:04.607Z,9.41
2022-09-28T16:42:31.849Z,9.42
2022-09-28T16:44:58.476Z,9.44
2022-09-28T16:47:25.121Z,9.44
2022-09-28T16:49:51.704Z,9.43
2022-09-28T16:52:38.149Z,9.38
2022-09-28T16:55:39.620Z,9.40
2022-09-28T16:58:04.812Z,9.44
2022-09-28T17:00:32.521Z,9.43
2022-09-28T17:02:59.314Z,9.51
2022-09-28T17:05:25.931Z,9.75
2022-09-28T17:07:59.673Z,9.94
2022-09-28T17:10:28.929Z,10.03
2022-09-28T17:12:56.778Z,10.11
2022-09-28T17:15:23.678Z,10.16
2022-09-28T17:17:50.536Z,10.20
2022-09-28T17:20:22.414Z,10.25
2022-09-28T17:22:49.608Z,10.19
2022-09-28T17:25:16.577Z,10.08
2022-09-28T17:27:45.376Z,10.02
2022-09-28T17:30:13.404Z,9.97
2022-09-28T17:32:44.911Z,9.88
2022-09-28T17:35:24.087Z,9.85
2022-09-28T17:37:51.415Z,9.82
2022-09-28T17:40:19.893Z,9.79
2022-09-28T17:42:47.960Z,9.78
2022-09-28T17:45:15.916Z,9.71
2022-09-28T17:47:43.495Z,9.67
2022-09-28T17:50:24.731Z,9.66
2022-09-28T17:52:54.640Z,9.62
2022-09-28T17:55:23.185Z,9.60
2022-09-28T17:57:50.117Z,9.56
2022-09-28T18:00:17.628Z,9.53
2022-09-28T18:02:44.567Z,9.55
2022-09-28T18:05:13.513Z,9.56
2022-09-28T18:07:43.125Z,9.59
2022-09-28T18:10:15.860Z,9.61
2022-09-28T18:12:43.277Z,9.58
2022-09-28T18:15:10.287Z,9.57
2022-09-28T18:17:36.974Z,9.57
2022-09-28T18:20:03.844Z,9.57
2022-09-28T18:22:30.454Z,9.60
2022-09-28T18:24:56.950Z,9.54
2022-09-28T18:27:23.477Z,9.52
2022-09-28T18:29:49.991Z,9.52
2022-09-28T18:32:16.520Z,9.58
2022-09-28T18:34:43.015Z,9.59
2022-09-28T18:37:10.625Z,9.52
2022-09-28T18:39:37.509Z,9.45
2022-09-28T18:42:04.222Z,9.41
2022-09-28T18:44:30.848Z,9.44
2022-09-28T18:46:57.417Z,9.38
2022-09-28T18:49:24.239Z,9.34
2022-09-28T18:51:50.764Z,9.31
2022-09-28T18:54:17.350Z,9.17
2022-09-28T18:56:43.992Z,9.17
2022-09-28T18:59:12.368Z,9.17
2022-09-28T19:01:41.310Z,9.14
2022-09-28T19:04:09.677Z,9.01
2022-09-28T19:06:44.503Z,8.92
2022-09-28T19:09:11.719Z,8.85
2022-09-28T19:11:38.239Z,8.82
2022-09-28T19:14:04.786Z,8.86
2022-09-28T19:16:34.081Z,8.93
2022-09-28T19:19:02.766Z,9.11
2022-09-28T19:21:30.046Z,9.15
2022-09-28T19:23:56.626Z,9.20
2022-09-28T19:26:24.771Z,9.28
2022-09-28T19:28:51.335Z,9.40
2022-09-28T19:31:18.156Z,9.32
2022-09-28T19:33:48.193Z,9.18
2022-09-28T19:36:17.234Z,9.08
2022-09-28T19:38:43.865Z,9.03
2022-09-28T19:41:11.440Z,8.97
2022-09-28T19:43:38.354Z,8.89
2022-09-28T19:46:05.846Z,8.87
2022-09-28T19:48:33.054Z,8.83
2022-09-28T19:51:00.913Z,8.86
2022-09-28T19:53:28.545Z,8.94
2022-09-28T19:55:56.365Z,8.92
2022-09-28T19:58:24.608Z,8.98
2022-09-28T20:00:51.379Z,9.03
2022-09-28T20:03:18.803Z,9.06
2022-09-28T20:05:46.083Z,9.10
2022-09-28T20:08:14.877Z,9.13
2022-09-28T20:10:52.397Z,9.18
2022-09-28T20:13:19.413Z,9.26
2022-09-28T20:15:46.068Z,9.35
2022-09-28T20:18:12.831Z,9.38
2022-09-28T20:20:41.966Z,9.34
2022-09-28T20:23:09.270Z,9.25
2022-09-28T20:25:35.801Z,9.25
2022-09-28T20:28:02.300Z,9.27
2022-09-28T20:30:28.850Z,9.30
2022-09-28T20:32:55.327Z,9.24
2022-09-28T20:35:32.114Z,9.15
2022-09-28T20:38:07.777Z,9.08
2022-09-28T20:40:35.255Z,9.14
2022-09-28T20:43:02.027Z,9.19
2022-09-28T20:45:28.527Z,9.21
2022-09-28T20:47:55.043Z,9.20
2022-09-28T20:50:22.078Z,9.15
2022-09-28T20:52:48.649Z,9.23
2022-09-28T20:55:15.227Z,9.16
2022-09-28T20:57:41.722Z,9.10
2022-09-28T21:00:10.075Z,9.07
2022-09-28T21:02:36.815Z,9.08
2022-09-28T21:05:03.585Z,9.14
2022-09-28T21:07:30.050Z,9.17
2022-09-28T21:09:56.530Z,9.13
2022-09-28T21:12:26.042Z,9.14
2022-09-28T21:14:53.727Z,9.18
2022-09-28T21:17:20.335Z,9.27
2022-09-28T21:19:46.841Z,9.34
2022-09-28T21:22:13.495Z,9.36
2022-09-28T21:24:40.056Z,9.26
2022-09-28T21:27:06.559Z,9.23
2022-09-28T21:29:33.140Z,9.29
2022-09-28T21:31:59.650Z,9.32
2022-09-28T21:34:26.180Z,9.32
2022-09-28T21:36:52.791Z,9.35
2022-09-28T21:39:20.093Z,9.35
2022-09-28T21:41:46.637Z,9.37
2022-09-28T21:44:13.175Z,9.35
2022-09-28T21:46:39.850Z,9.29
2022-09-28T21:49:07.616Z,9.16
2022-09-28T21:51:34.646Z,9.13
2022-09-28T21:54:01.218Z,9.13
2022-09-28T21:56:27.892Z,9.04
2022-09-28T21:58:54.393Z,9.01
2022-09-28T22:01:22.835Z,9.02
2022-09-28T22:03:54.300Z,9.03
2022-09-28T22:06:22.002Z,8.96
2022-09-28T22:08:49.362Z,8.96
2022-09-28T22:11:17.331Z,8.96
2022-09-28T22:13:46.617Z,8.93
2022-09-28T22:16:14.478Z,8.91
2022-09-28T22:18:41.418Z,8.90
2022-09-28T22:21:09.997Z,8.95
2022-09-28T22:23:37.318Z,8.95
2022-09-28T22:26:17.878Z,9.03
2022-09-28T22:28:48.459Z,9.05
2022-09-28T22:31:16.275Z,9.10
2022-09-28T22:33:43.092Z,9.09
2022-09-28T22:36:09.717Z,9.05
2022-09-28T22:38:36.296Z,9.00
2022-09-28T22:41:03.847Z,9.03
2022-09-28T22:43:30.661Z,8.95
2022-09-28T22:46:07.532Z,8.93
2022-09-28T22:48:34.865Z,9.00
2022-09-28T22:51:02.033Z,9.01
2022-09-28T22:53:29.127Z,9.00
2022-09-28T22:55:56.442Z,9.04
2022-09-28T22:58:23.684Z,8.98
2022-09-28T23:00:50.587Z,8.91
2022-09-28T23:03:17.914Z,8.91
2022-09-28T23:05:54.115Z,8.91
2022-09-28T23:08:20.902Z,8.95
2022-09-28T23:10:47.405Z,8.96
2022-09-28T23:13:14.382Z,8.94
2022-09-28T23:15:41.060Z,8.92
2022-09-28T23:18:08.576Z,9.02
2022-09-28T23:20:36.157Z,9.04
2022-09-28T23:23:02.992Z,9.03
2022-09-28T23:25:29.472Z,9.04
2022-09-28T23:27:55.983Z,8.98
2022-09-28T23:30:23.797Z,8.96
2022-09-28T23:32:51.782Z,8.90
2022-09-28T23:35:18.276Z,8.87
2022-09-28T23:37:48.784Z,8.84
2022-09-28T23:40:15.347Z,8.82
2022-09-28T23:42:41.837Z,8.88
2022-09-28T23:45:08.670Z,8.95
2022-09-28T23:47:37.363Z,8.92
2022-09-28T23:50:04.808Z,8.87
2022-09-28T23:52:31.371Z,8.83
2022-09-28T23:54:57.927Z,8.85
2022-09-28T23:57:25.392Z,8.90
2022-09-28T23:59:51.930Z,8.93
